sensor_id;sensor_type;location;lat;lon;timestamp;P1;durP1;ratioP1;P2;durP2;ratioP2
40755;SDS011;26461;45.630;9.418;2022-09-27T00:01:19;7.25;;;4.20;;
40755;SDS011;26461;45.630;9.418;2022-09-27T00:04:29;14.90;;;4.22;;
40755;SDS011;26461;45.630;9.418;2022-09-27T00:07:39;12.27;;;4.90;;
40755;SDS011;26461;45.630;9.418;2022-09-27T00:10:56;8.70;;;5.00;;
40755;SDS011;26461;45.630;9.418;2022-09-27T00:14:11;8.82;;;5.10;;
40755;SDS011;26461;45.630;9.418;2022-09-27T00:17:23;8.68;;;4.00;;
40755;SDS011;26461;45.630;9.418;2022-09-27T00:20:33;10.18;;;6.63;;
40755;SDS011;26461;45.630;9.418;2022-09-27T00:23:43;8.68;;;5.30;;
40755;SDS011;26461;45.630;9.418;2022-09-27T00:26:53;11.20;;;5.45;;
40755;SDS011;26461;45.630;9.418;2022-09-27T00:30:03;11.10;;;4.95;;
40755;SDS011;26461;45.630;9.418;2022-09-27T00:33:13;19.17;;;6.68;;
40755;SDS011;26461;45.630;9.418;2022-09-27T00:36:24;8.38;;;3.10;;
40755;SDS011;26461;45.630;9.418;2022-09-27T00:39:36;11.48;;;4.30;;
40755;SDS011;26461;45.630;9.418;2022-09-27T00:42:47;8.30;;;4.03;;
40755;SDS011;26461;45.630;9.418;2022-09-27T00:45:58;14.48;;;4.50;;
40755;SDS011;26461;45.630;9.418;2022-09-27T00:52:48;6.50;;;2.97;;
40755;SDS011;26461;45.630;9.418;2022-09-27T00:56:08;9.85;;;5.78;;
40755;SDS011;26461;45.630;9.418;2022-09-27T00:59:25;7.63;;;3.50;;
40755;SDS011;26461;45.630;9.418;2022-09-27T01:02:49;6.53;;;4.88;;
40755;SDS011;26461;45.630;9.418;2022-09-27T01:06:01;9.90;;;3.50;;
40755;SDS011;26461;45.630;9.418;2022-09-27T01:09:13;9.20;;;3.25;;
40755;SDS011;26461;45.630;9.418;2022-09-27T01:12:44;10.55;;;4.55;;
40755;SDS011;26461;45.630;9.418;2022-09-27T01:16:29;14.20;;;3.88;;
40755;SDS011;26461;45.630;9.418;2022-09-27T01:23:13;7.80;;;3.55;;
40755;SDS011;26461;45.630;9.418;2022-09-27T01:26:53;9.40;;;5.68;;
40755;SDS011;26461;45.630;9.418;2022-09-27T01:34:17;11.88;;;4.93;;
40755;SDS011;26461;45.630;9.418;2022-09-27T01:37:39;7.82;;;4.13;;
40755;SDS011;26461;45.630;9.418;2022-09-27T01:41:08;15.25;;;4.35;;
40755;SDS011;26461;45.630;9.418;2022-09-27T01:45:08;7.38;;;3.70;;
40755;SDS011;26461;45.630;9.418;2022-09-27T01:48:40;11.23;;;7.63;;
40755;SDS011;26461;45.630;9.418;2022-09-27T01:51:58;9.48;;;4.00;;
40755;SDS011;26461;45.630;9.418;2022-09-27T01:55:10;9.15;;;4.20;;
40755;SDS011;26461;45.630;9.418;2022-09-27T01:59:26;14.63;;;4.10;;
40755;SDS011;26461;45.630;9.418;2022-09-27T02:02:27;12.57;;;5.78;;
40755;SDS011;26461;45.630;9.418;2022-09-27T02:06:08;14.95;;;6.93;;
40755;SDS011;26461;45.630;9.418;2022-09-27T02:09:46;8.85;;;4.43;;
40755;SDS011;26461;45.630;9.418;2022-09-27T02:16:49;15.15;;;7.75;;
40755;SDS011;26461;45.630;9.418;2022-09-27T02:26:55;9.23;;;6.47;;
40755;SDS011;26461;45.630;9.418;2022-09-27T02:30:14;10.50;;;7.45;;
40755;SDS011;26461;45.630;9.418;2022-09-27T02:33:51;12.60;;;5.82;;
40755;SDS011;26461;45.630;9.418;2022-09-27T02:37:06;14.27;;;7.35;;
40755;SDS011;26461;45.630;9.418;2022-09-27T02:40:16;16.92;;;9.38;;
40755;SDS011;26461;45.630;9.418;2022-09-27T02:43:27;13.52;;;7.72;;
40755;SDS011;26461;45.630;9.418;2022-09-27T02:50:14;8.85;;;6.07;;
40755;SDS011;26461;45.630;9.418;2022-09-27T02:57:53;13.40;;;5.78;;
40755;SDS011;26461;45.630;9.418;2022-09-27T03:05:09;10.10;;;7.15;;
40755;SDS011;26461;45.630;9.418;2022-09-27T03:08:24;14.77;;;6.75;;
40755;SDS011;26461;45.630;9.418;2022-09-27T03:11:34;9.07;;;5.82;;
40755;SDS011;26461;45.630;9.418;2022-09-27T03:14:44;12.27;;;7.40;;
40755;SDS011;26461;45.630;9.418;2022-09-27T03:18:14;7.82;;;3.60;;
40755;SDS011;26461;45.630;9.418;2022-09-27T03:21:49;9.65;;;5.22;;
40755;SDS011;26461;45.630;9.418;2022-09-27T03:25:00;10.18;;;5.07;;
40755;SDS011;26461;45.630;9.418;2022-09-27T03:28:10;9.13;;;4.57;;
40755;SDS011;26461;45.630;9.418;2022-09-27T03:31:22;9.23;;;4.75;;
40755;SDS011;26461;45.630;9.418;2022-09-27T03:35:03;12.93;;;7.07;;
40755;SDS011;26461;45.630;9.418;2022-09-27T03:38:13;9.95;;;7.38;;
40755;SDS011;26461;45.630;9.418;2022-09-27T03:41:24;11.52;;;5.20;;
40755;SDS011;26461;45.630;9.418;2022-09-27T03:44:34;17.30;;;5.85;;
40755;SDS011;26461;45.630;9.418;2022-09-27T03:47:44;11.00;;;4.68;;
40755;SDS011;26461;45.630;9.418;2022-09-27T03:50:53;11.85;;;4.50;;
40755;SDS011;26461;45.630;9.418;2022-09-27T03:54:03;8.85;;;4.30;;
40755;SDS011;26461;45.630;9.418;2022-09-27T03:57:14;9.70;;;4.70;;
40755;SDS011;26461;45.630;9.418;2022-09-27T04:00:24;8.48;;;3.65;;
40755;SDS011;26461;45.630;9.418;2022-09-27T04:03:36;6.60;;;2.40;;
40755;SDS011;26461;45.630;9.418;2022-09-27T04:07:05;8.05;;;3.78;;
40755;SDS011;26461;45.630;9.418;2022-09-27T04:10:16;5.15;;;1.80;;
40755;SDS011;26461;45.630;9.418;2022-09-27T04:13:22;5.13;;;2.58;;
40755;SDS011;26461;45.630;9.418;2022-09-27T04:16:33;4.63;;;3.53;;
40755;SDS011;26461;45.630;9.418;2022-09-27T04:19:57;7.20;;;3.05;;
40755;SDS011;26461;45.630;9.418;2022-09-27T04:23:08;5.57;;;2.95;;
40755;SDS011;26461;45.630;9.418;2022-09-27T04:26:25;5.10;;;1.70;;
40755;SDS011;26461;45.630;9.418;2022-09-27T04:29:41;9.43;;;3.67;;
40755;SDS011;26461;45.630;9.418;2022-09-27T04:33:26;7.53;;;2.40;;
40755;SDS011;26461;45.630;9.418;2022-09-27T04:36:46;5.00;;;1.60;;
40755;SDS011;26461;45.630;9.418;2022-09-27T04:40:03;6.78;;;1.95;;
40755;SDS011;26461;45.630;9.418;2022-09-27T04:43:13;5.75;;;3.67;;
40755;SDS011;26461;45.630;9.418;2022-09-27T04:46:23;6.68;;;5.30;;
40755;SDS011;26461;45.630;9.418;2022-09-27T04:49:28;5.70;;;2.75;;
40755;SDS011;26461;45.630;9.418;2022-09-27T04:52:38;5.80;;;3.30;;
40755;SDS011;26461;45.630;9.418;2022-09-27T04:55:49;5.32;;;1.80;;
40755;SDS011;26461;45.630;9.418;2022-09-27T04:59:01;7.88;;;2.80;;
40755;SDS011;26461;45.630;9.418;2022-09-27T05:02:11;5.90;;;2.80;;
40755;SDS011;26461;45.630;9.418;2022-09-27T05:05:50;8.23;;;3.50;;
40755;SDS011;26461;45.630;9.418;2022-09-27T05:09:00;6.50;;;3.38;;
40755;SDS011;26461;45.630;9.418;2022-09-27T05:12:31;9.30;;;2.63;;
40755;SDS011;26461;45.630;9.418;2022-09-27T05:15:41;6.70;;;2.88;;
40755;SDS011;26461;45.630;9.418;2022-09-27T05:19:10;4.00;;;1.50;;
40755;SDS011;26461;45.630;9.418;2022-09-27T05:22:46;9.68;;;2.53;;
40755;SDS011;26461;45.630;9.418;2022-09-27T05:25:56;6.05;;;2.28;;
40755;SDS011;26461;45.630;9.418;2022-09-27T05:29:06;7.20;;;3.10;;
40755;SDS011;26461;45.630;9.418;2022-09-27T05:32:20;7.65;;;3.70;;
40755;SDS011;26461;45.630;9.418;2022-09-27T05:35:51;7.32;;;3.20;;
40755;SDS011;26461;45.630;9.418;2022-09-27T05:39:07;6.85;;;2.47;;
40755;SDS011;26461;45.630;9.418;2022-09-27T05:42:17;5.32;;;3.05;;
40755;SDS011;26461;45.630;9.418;2022-09-27T05:45:27;10.20;;;4.03;;
40755;SDS011;26461;45.630;9.418;2022-09-27T05:48:41;10.30;;;3.85;;
40755;SDS011;26461;45.630;9.418;2022-09-27T05:51:51;4.95;;;2.83;;
40755;SDS011;26461;45.630;9.418;2022-09-27T05:55:03;9.60;;;4.03;;
40755;SDS011;26461;45.630;9.418;2022-09-27T05:58:14;7.63;;;3.03;;
40755;SDS011;26461;45.630;9.418;2022-09-27T06:01:32;12.10;;;3.72;;
40755;SDS011;26461;45.630;9.418;2022-09-27T06:04:44;7.25;;;2.08;;
40755;SDS011;26461;45.630;9.418;2022-09-27T06:08:13;5.45;;;2.25;;
40755;SDS011;26461;45.630;9.418;2022-09-27T06:11:25;6.25;;;2.42;;
40755;SDS011;26461;45.630;9.418;2022-09-27T06:14:36;7.90;;;3.70;;
40755;SDS011;26461;45.630;9.418;2022-09-27T06:17:52;7.68;;;3.38;;
40755;SDS011;26461;45.630;9.418;2022-09-27T06:21:03;4.40;;;2.45;;
40755;SDS011;26461;45.630;9.418;2022-09-27T06:24:15;7.80;;;2.42;;
40755;SDS011;26461;45.630;9.418;2022-09-27T06:27:25;5.53;;;3.67;;
40755;SDS011;26461;45.630;9.418;2022-09-27T06:30:46;17.15;;;2.67;;
40755;SDS011;26461;45.630;9.418;2022-09-27T06:34:08;8.38;;;2.85;;
40755;SDS011;26461;45.630;9.418;2022-09-27T06:37:18;8.52;;;3.05;;
40755;SDS011;26461;45.630;9.418;2022-09-27T06:40:28;5.32;;;3.13;;
40755;SDS011;26461;45.630;9.418;2022-09-27T06:43:52;9.05;;;2.55;;
40755;SDS011;26461;45.630;9.418;2022-09-27T06:47:37;9.18;;;2.70;;
40755;SDS011;26461;45.630;9.418;2022-09-27T06:51:01;10.40;;;3.72;;
40755;SDS011;26461;45.630;9.418;2022-09-27T06:54:11;5.85;;;2.60;;
40755;SDS011;26461;45.630;9.418;2022-09-27T06:57:21;10.52;;;3.70;;
40755;SDS011;26461;45.630;9.418;2022-09-27T07:00:50;9.80;;;3.47;;
40755;SDS011;26461;45.630;9.418;2022-09-27T07:04:24;4.07;;;1.52;;
40755;SDS011;26461;45.630;9.418;2022-09-27T07:07:46;5.47;;;3.08;;
40755;SDS011;26461;45.630;9.418;2022-09-27T07:11:01;7.90;;;2.65;;
40755;SDS011;26461;45.630;9.418;2022-09-27T07:14:13;7.53;;;3.20;;
40755;SDS011;26461;45.630;9.418;2022-09-27T07:17:25;7.63;;;3.03;;
40755;SDS011;26461;45.630;9.418;2022-09-27T07:20:36;6.10;;;3.33;;
40755;SDS011;26461;45.630;9.418;2022-09-27T07:23:46;11.43;;;3.40;;
40755;SDS011;26461;45.630;9.418;2022-09-27T07:26:57;7.20;;;4.43;;
40755;SDS011;26461;45.630;9.418;2022-09-27T07:30:07;8.32;;;4.43;;
40755;SDS011;26461;45.630;9.418;2022-09-27T07:33:19;7.63;;;4.45;;
40755;SDS011;26461;45.630;9.418;2022-09-27T07:36:25;7.30;;;3.40;;
40755;SDS011;26461;45.630;9.418;2022-09-27T07:39:35;12.15;;;4.97;;
40755;SDS011;26461;45.630;9.418;2022-09-27T07:42:46;11.10;;;3.58;;
40755;SDS011;26461;45.630;9.418;2022-09-27T07:45:51;3.55;;;1.35;;
40755;SDS011;26461;45.630;9.418;2022-09-27T07:49:13;8.55;;;3.28;;
40755;SDS011;26461;45.630;9.418;2022-09-27T07:52:27;8.32;;;2.95;;
40755;SDS011;26461;45.630;9.418;2022-09-27T07:56:01;9.85;;;4.70;;
40755;SDS011;26461;45.630;9.418;2022-09-27T07:59:11;9.32;;;3.45;;
40755;SDS011;26461;45.630;9.418;2022-09-27T08:02:21;5.63;;;3.40;;
40755;SDS011;26461;45.630;9.418;2022-09-27T08:05:28;14.32;;;4.78;;
40755;SDS011;26461;45.630;9.418;2022-09-27T08:08:38;6.50;;;2.53;;
40755;SDS011;26461;45.630;9.418;2022-09-27T08:12:04;5.95;;;2.35;;
40755;SDS011;26461;45.630;9.418;2022-09-27T08:15:14;11.25;;;3.40;;
40755;SDS011;26461;45.630;9.418;2022-09-27T08:18:25;10.25;;;4.13;;
40755;SDS011;26461;45.630;9.418;2022-09-27T08:21:37;6.68;;;2.42;;
40755;SDS011;26461;45.630;9.418;2022-09-27T08:24:58;12.75;;;3.88;;
40755;SDS011;26461;45.630;9.418;2022-09-27T08:28:38;14.00;;;5.00;;
40755;SDS011;26461;45.630;9.418;2022-09-27T08:31:54;5.63;;;3.08;;
40755;SDS011;26461;45.630;9.418;2022-09-27T08:34:59;9.65;;;5.45;;
40755;SDS011;26461;45.630;9.418;2022-09-27T08:38:11;8.88;;;4.75;;
40755;SDS011;26461;45.630;9.418;2022-09-27T08:41:25;12.20;;;3.28;;
40755;SDS011;26461;45.630;9.418;2022-09-27T08:47:58;10.20;;;5.20;;
40755;SDS011;26461;45.630;9.418;2022-09-27T08:51:11;8.98;;;2.50;;
40755;SDS011;26461;45.630;9.418;2022-09-27T08:54:23;7.90;;;3.03;;
40755;SDS011;26461;45.630;9.418;2022-09-27T08:57:38;12.75;;;5.18;;
40755;SDS011;26461;45.630;9.418;2022-09-27T09:00:49;6.35;;;3.95;;
40755;SDS011;26461;45.630;9.418;2022-09-27T09:04:07;7.25;;;3.35;;
40755;SDS011;26461;45.630;9.418;2022-09-27T09:11:01;12.48;;;6.00;;
40755;SDS011;26461;45.630;9.418;2022-09-27T09:18:47;10.07;;;5.30;;
40755;SDS011;26461;45.630;9.418;2022-09-27T09:22:29;10.43;;;5.78;;
40755;SDS011;26461;45.630;9.418;2022-09-27T09:29:54;7.60;;;2.50;;
40755;SDS011;26461;45.630;9.418;2022-09-27T09:33:26;8.77;;;1.95;;
40755;SDS011;26461;45.630;9.418;2022-09-27T09:36:44;4.63;;;2.33;;
40755;SDS011;26461;45.630;9.418;2022-09-27T09:40:12;5.55;;;2.55;;
40755;SDS011;26461;45.630;9.418;2022-09-27T09:43:51;9.30;;;5.22;;
40755;SDS011;26461;45.630;9.418;2022-09-27T09:50:51;9.95;;;3.00;;
40755;SDS011;26461;45.630;9.418;2022-09-27T09:54:06;13.50;;;4.13;;
40755;SDS011;26461;45.630;9.418;2022-09-27T09:57:39;8.90;;;6.82;;
40755;SDS011;26461;45.630;9.418;2022-09-27T10:01:00;13.00;;;5.40;;
40755;SDS011;26461;45.630;9.418;2022-09-27T10:04:27;13.35;;;4.20;;
40755;SDS011;26461;45.630;9.418;2022-09-27T10:07:38;6.05;;;3.38;;
40755;SDS011;26461;45.630;9.418;2022-09-27T10:10:49;11.98;;;4.55;;
40755;SDS011;26461;45.630;9.418;2022-09-27T10:14:20;18.73;;;7.38;;
40755;SDS011;26461;45.630;9.418;2022-09-27T10:17:41;9.88;;;4.68;;
40755;SDS011;26461;45.630;9.418;2022-09-27T10:20:55;14.30;;;4.97;;
40755;SDS011;26461;45.630;9.418;2022-09-27T10:24:08;9.27;;;4.18;;
40755;SDS011;26461;45.630;9.418;2022-09-27T10:30:55;10.45;;;4.95;;
40755;SDS011;26461;45.630;9.418;2022-09-27T10:34:36;8.55;;;2.97;;
40755;SDS011;26461;45.630;9.418;2022-09-27T10:37:46;9.93;;;5.47;;
40755;SDS011;26461;45.630;9.418;2022-09-27T10:41:15;10.43;;;3.35;;
40755;SDS011;26461;45.630;9.418;2022-09-27T10:44:36;7.15;;;3.70;;
40755;SDS011;26461;45.630;9.418;2022-09-27T10:47:58;10.05;;;4.50;;
40755;SDS011;26461;45.630;9.418;2022-09-27T10:51:20;7.95;;;4.50;;
40755;SDS011;26461;45.630;9.418;2022-09-27T10:54:35;7.70;;;3.17;;
40755;SDS011;26461;45.630;9.418;2022-09-27T10:57:47;8.68;;;4.60;;
40755;SDS011;26461;45.630;9.418;2022-09-27T11:01:01;12.32;;;6.68;;
40755;SDS011;26461;45.630;9.418;2022-09-27T11:04:32;9.23;;;6.38;;
40755;SDS011;26461;45.630;9.418;2022-09-27T11:07:49;5.78;;;4.85;;
40755;SDS011;26461;45.630;9.418;2022-09-27T11:11:23;15.93;;;5.15;;
40755;SDS011;26461;45.630;9.418;2022-09-27T11:14:36;9.65;;;6.57;;
40755;SDS011;26461;45.630;9.418;2022-09-27T11:17:50;10.48;;;5.03;;
40755;SDS011;26461;45.630;9.418;2022-09-27T11:45:40;11.65;;;5.65;;
40755;SDS011;26461;45.630;9.418;2022-09-27T11:49:13;11.48;;;5.43;;
40755;SDS011;26461;45.630;9.418;2022-09-27T11:52:48;8.63;;;6.45;;
40755;SDS011;26461;45.630;9.418;2022-09-27T12:06:12;15.98;;;4.65;;
40755;SDS011;26461;45.630;9.418;2022-09-27T12:09:27;10.18;;;7.15;;
40755;SDS011;26461;45.630;9.418;2022-09-27T12:12:51;11.00;;;4.97;;
40755;SDS011;26461;45.630;9.418;2022-09-27T12:16:05;9.75;;;3.65;;
40755;SDS011;26461;45.630;9.418;2022-09-27T12:19:29;10.15;;;7.80;;
40755;SDS011;26461;45.630;9.418;2022-09-27T12:23:06;13.65;;;7.50;;
40755;SDS011;26461;45.630;9.418;2022-09-27T12:26:37;21.02;;;11.02;;
40755;SDS011;26461;45.630;9.418;2022-09-27T12:29:55;12.13;;;6.38;;
40755;SDS011;26461;45.630;9.418;2022-09-27T12:37:04;14.80;;;7.20;;
40755;SDS011;26461;45.630;9.418;2022-09-27T12:43:47;9.70;;;4.80;;
40755;SDS011;26461;45.630;9.418;2022-09-27T12:50:54;9.57;;;5.93;;
40755;SDS011;26461;45.630;9.418;2022-09-27T12:57:38;14.45;;;7.40;;
40755;SDS011;26461;45.630;9.418;2022-09-27T13:00:57;10.63;;;4.07;;
40755;SDS011;26461;45.630;9.418;2022-09-27T13:08:15;5.43;;;2.75;;
40755;SDS011;26461;45.630;9.418;2022-09-27T13:15:01;9.07;;;4.07;;
40755;SDS011;26461;45.630;9.418;2022-09-27T13:26:01;6.05;;;4.70;;
40755;SDS011;26461;45.630;9.418;2022-09-27T13:29:03;7.43;;;3.28;;
40755;SDS011;26461;45.630;9.418;2022-09-27T13:32:24;8.10;;;3.05;;
40755;SDS011;26461;45.630;9.418;2022-09-27T13:39:24;13.18;;;4.13;;
40755;SDS011;26461;45.630;9.418;2022-09-27T13:46:27;7.10;;;1.92;;
40755;SDS011;26461;45.630;9.418;2022-09-27T13:49:39;8.23;;;2.53;;
40755;SDS011;26461;45.630;9.418;2022-09-27T13:52:58;5.82;;;3.17;;
40755;SDS011;26461;45.630;9.418;2022-09-27T13:56:59;9.90;;;1.75;;
40755;SDS011;26461;45.630;9.418;2022-09-27T13:59:47;8.90;;;2.65;;
40755;SDS011;26461;45.630;9.418;2022-09-27T14:03:25;13.15;;;2.72;;
40755;SDS011;26461;45.630;9.418;2022-09-27T14:06:43;12.13;;;3.63;;
40755;SDS011;26461;45.630;9.418;2022-09-27T14:09:57;7.20;;;3.78;;
40755;SDS011;26461;45.630;9.418;2022-09-27T14:13:12;7.60;;;5.05;;
40755;SDS011;26461;45.630;9.418;2022-09-27T14:16:39;6.05;;;2.00;;
40755;SDS011;26461;45.630;9.418;2022-09-27T14:19:54;6.22;;;2.28;;
40755;SDS011;26461;45.630;9.418;2022-09-27T14:23:11;6.50;;;2.17;;
40755;SDS011;26461;45.630;9.418;2022-09-27T14:26:33;8.02;;;2.67;;
40755;SDS011;26461;45.630;9.418;2022-09-27T14:32:59;4.70;;;2.10;;
40755;SDS011;26461;45.630;9.418;2022-09-27T14:40:01;4.50;;;1.75;;
40755;SDS011;26461;45.630;9.418;2022-09-27T14:43:21;5.00;;;1.42;;
40755;SDS011;26461;45.630;9.418;2022-09-27T14:46:31;4.18;;;1.90;;
40755;SDS011;26461;45.630;9.418;2022-09-27T14:49:45;6.47;;;1.83;;
40755;SDS011;26461;45.630;9.418;2022-09-27T14:53:18;9.77;;;3.33;;
40755;SDS011;26461;45.630;9.418;2022-09-27T14:56:34;3.65;;;1.40;;
40755;SDS011;26461;45.630;9.418;2022-09-27T14:59:46;4.40;;;0.90;;
40755;SDS011;26461;45.630;9.418;2022-09-27T15:02:57;8.55;;;2.13;;
40755;SDS011;26461;45.630;9.418;2022-09-27T15:06:11;5.65;;;2.92;;
40755;SDS011;26461;45.630;9.418;2022-09-27T15:09:21;3.53;;;1.00;;
40755;SDS011;26461;45.630;9.418;2022-09-27T15:12:31;3.47;;;1.23;;
40755;SDS011;26461;45.630;9.418;2022-09-27T15:15:37;2.75;;;0.95;;
40755;SDS011;26461;45.630;9.418;2022-09-27T15:19:34;3.67;;;1.60;;
40755;SDS011;26461;45.630;9.418;2022-09-27T15:22:42;2.20;;;0.57;;
40755;SDS011;26461;45.630;9.418;2022-09-27T15:29:24;5.50;;;1.58;;
40755;SDS011;26461;45.630;9.418;2022-09-27T15:32:34;4.75;;;1.77;;
40755;SDS011;26461;45.630;9.418;2022-09-27T15:35:49;3.72;;;1.05;;
40755;SDS011;26461;45.630;9.418;2022-09-27T15:39:06;5.15;;;1.17;;
40755;SDS011;26461;45.630;9.418;2022-09-27T15:42:18;3.28;;;1.45;;
40755;SDS011;26461;45.630;9.418;2022-09-27T15:45:33;4.25;;;1.25;;
40755;SDS011;26461;45.630;9.418;2022-09-27T15:48:44;2.75;;;0.85;;
40755;SDS011;26461;45.630;9.418;2022-09-27T15:51:55;3.50;;;1.20;;
40755;SDS011;26461;45.630;9.418;2022-09-27T15:55:02;4.07;;;1.23;;
40755;SDS011;26461;45.630;9.418;2022-09-27T15:58:18;5.85;;;1.83;;
40755;SDS011;26461;45.630;9.418;2022-09-27T16:01:29;5.90;;;2.75;;
40755;SDS011;26461;45.630;9.418;2022-09-27T16:04:34;5.68;;;2.25;;
40755;SDS011;26461;45.630;9.418;2022-09-27T16:07:44;5.00;;;2.22;;
40755;SDS011;26461;45.630;9.418;2022-09-27T16:10:54;3.50;;;1.20;;
40755;SDS011;26461;45.630;9.418;2022-09-27T16:14:06;5.15;;;1.58;;
40755;SDS011;26461;45.630;9.418;2022-09-27T16:17:12;5.30;;;1.30;;
40755;SDS011;26461;45.630;9.418;2022-09-27T16:20:22;8.20;;;2.67;;
40755;SDS011;26461;45.630;9.418;2022-09-27T16:23:34;4.57;;;1.38;;
40755;SDS011;26461;45.630;9.418;2022-09-27T16:26:45;6.40;;;2.75;;
40755;SDS011;26461;45.630;9.418;2022-09-27T16:29:56;3.70;;;1.40;;
40755;SDS011;26461;45.630;9.418;2022-09-27T16:33:08;3.67;;;1.08;;
40755;SDS011;26461;45.630;9.418;2022-09-27T16:36:15;5.95;;;1.27;;
40755;SDS011;26461;45.630;9.418;2022-09-27T16:39:29;5.70;;;1.70;;
40755;SDS011;26461;45.630;9.418;2022-09-27T16:42:39;6.05;;;1.55;;
40755;SDS011;26461;45.630;9.418;2022-09-27T16:45:52;4.03;;;1.63;;
40755;SDS011;26461;45.630;9.418;2022-09-27T16:49:02;4.03;;;1.50;;
40755;SDS011;26461;45.630;9.418;2022-09-27T16:52:25;3.13;;;1.65;;
40755;SDS011;26461;45.630;9.418;2022-09-27T16:55:30;5.90;;;1.60;;
40755;SDS011;26461;45.630;9.418;2022-09-27T16:58:40;5.57;;;2.67;;
40755;SDS011;26461;45.630;9.418;2022-09-27T17:01:50;3.22;;;0.90;;
40755;SDS011;26461;45.630;9.418;2022-09-27T17:05:00;3.30;;;0.60;;
40755;SDS011;26461;45.630;9.418;2022-09-27T17:08:10;2.85;;;1.00;;
40755;SDS011;26461;45.630;9.418;2022-09-27T17:11:15;3.63;;;1.30;;
40755;SDS011;26461;45.630;9.418;2022-09-27T17:14:27;5.00;;;1.63;;
40755;SDS011;26461;45.630;9.418;2022-09-27T17:17:37;4.90;;;1.52;;
40755;SDS011;26461;45.630;9.418;2022-09-27T17:20:44;4.25;;;1.38;;
40755;SDS011;26461;45.630;9.418;2022-09-27T17:23:49;2.50;;;1.08;;
40755;SDS011;26461;45.630;9.418;2022-09-27T17:26:59;4.68;;;2.08;;
40755;SDS011;26461;45.630;9.418;2022-09-27T17:30:11;4.07;;;2.47;;
40755;SDS011;26461;45.630;9.418;2022-09-27T17:33:20;5.55;;;3.88;;
40755;SDS011;26461;45.630;9.418;2022-09-27T17:36:31;3.63;;;1.10;;
40755;SDS011;26461;45.630;9.418;2022-09-27T17:39:45;8.02;;;1.52;;
40755;SDS011;26461;45.630;9.418;2022-09-27T17:42:56;3.97;;;1.67;;
40755;SDS011;26461;45.630;9.418;2022-09-27T17:46:07;6.63;;;1.50;;
40755;SDS011;26461;45.630;9.418;2022-09-27T17:49:18;5.30;;;2.08;;
40755;SDS011;26461;45.630;9.418;2022-09-27T17:52:46;4.00;;;1.92;;
40755;SDS011;26461;45.630;9.418;2022-09-27T17:56:00;3.38;;;1.77;;
40755;SDS011;26461;45.630;9.418;2022-09-27T17:59:10;5.07;;;3.28;;
40755;SDS011;26461;45.630;9.418;2022-09-27T18:02:21;3.28;;;1.60;;
40755;SDS011;26461;45.630;9.418;2022-09-27T18:05:32;4.45;;;2.33;;
40755;SDS011;26461;45.630;9.418;2022-09-27T18:08:42;3.67;;;1.17;;
40755;SDS011;26461;45.630;9.418;2022-09-27T18:11:47;4.20;;;2.67;;
40755;SDS011;26461;45.630;9.418;2022-09-27T18:14:52;3.50;;;0.85;;
40755;SDS011;26461;45.630;9.418;2022-09-27T18:18:07;5.07;;;1.35;;
40755;SDS011;26461;45.630;9.418;2022-09-27T18:21:18;3.10;;;1.85;;
40755;SDS011;26461;45.630;9.418;2022-09-27T18:24:32;2.72;;;0.95;;
40755;SDS011;26461;45.630;9.418;2022-09-27T18:27:41;4.45;;;2.25;;
40755;SDS011;26461;45.630;9.418;2022-09-27T18:30:53;3.00;;;1.33;;
40755;SDS011;26461;45.630;9.418;2022-09-27T18:34:04;5.47;;;2.13;;
40755;SDS011;26461;45.630;9.418;2022-09-27T18:37:16;6.15;;;2.13;;
40755;SDS011;26461;45.630;9.418;2022-09-27T18:40:26;6.85;;;3.50;;
40755;SDS011;26461;45.630;9.418;2022-09-27T18:43:40;9.43;;;2.50;;
40755;SDS011;26461;45.630;9.418;2022-09-27T18:46:52;3.65;;;2.00;;
40755;SDS011;26461;45.630;9.418;2022-09-27T18:50:04;4.57;;;1.70;;
40755;SDS011;26461;45.630;9.418;2022-09-27T18:53:14;4.45;;;2.38;;
40755;SDS011;26461;45.630;9.418;2022-09-27T18:56:26;2.50;;;0.80;;
40755;SDS011;26461;45.630;9.418;2022-09-27T18:59:32;4.30;;;1.55;;
40755;SDS011;26461;45.630;9.418;2022-09-27T19:02:47;4.10;;;2.13;;
40755;SDS011;26461;45.630;9.418;2022-09-27T19:06:05;4.00;;;1.30;;
40755;SDS011;26461;45.630;9.418;2022-09-27T19:09:14;4.32;;;1.70;;
40755;SDS011;26461;45.630;9.418;2022-09-27T19:12:25;5.80;;;2.20;;
40755;SDS011;26461;45.630;9.418;2022-09-27T19:15:37;3.90;;;1.55;;
40755;SDS011;26461;45.630;9.418;2022-09-27T19:18:49;3.35;;;0.60;;
40755;SDS011;26461;45.630;9.418;2022-09-27T19:21:55;6.60;;;1.30;;
40755;SDS011;26461;45.630;9.418;2022-09-27T19:25:03;4.68;;;1.73;;
40755;SDS011;26461;45.630;9.418;2022-09-27T19:28:15;6.95;;;2.10;;
40755;SDS011;26461;45.630;9.418;2022-09-27T19:31:29;7.30;;;1.48;;
40755;SDS011;26461;45.630;9.418;2022-09-27T19:34:42;6.45;;;2.13;;
40755;SDS011;26461;45.630;9.418;2022-09-27T19:37:53;4.25;;;1.48;;
40755;SDS011;26461;45.630;9.418;2022-09-27T19:41:07;6.38;;;2.15;;
40755;SDS011;26461;45.630;9.418;2022-09-27T19:44:18;4.90;;;3.50;;
40755;SDS011;26461;45.630;9.418;2022-09-27T19:47:24;10.48;;;2.50;;
40755;SDS011;26461;45.630;9.418;2022-09-27T19:50:36;9.88;;;3.63;;
40755;SDS011;26461;45.630;9.418;2022-09-27T19:53:43;7.43;;;2.00;;
40755;SDS011;26461;45.630;9.418;2022-09-27T19:56:56;8.07;;;3.00;;
40755;SDS011;26461;45.630;9.418;2022-09-27T20:00:01;3.03;;;2.70;;
40755;SDS011;26461;45.630;9.418;2022-09-27T20:03:10;5.22;;;1.60;;
40755;SDS011;26461;45.630;9.418;2022-09-27T20:06:22;7.78;;;1.80;;
40755;SDS011;26461;45.630;9.418;2022-09-27T20:09:35;8.98;;;1.90;;
40755;SDS011;26461;45.630;9.418;2022-09-27T20:12:47;7.63;;;2.15;;
40755;SDS011;26461;45.630;9.418;2022-09-27T20:16:12;7.35;;;1.35;;
40755;SDS011;26461;45.630;9.418;2022-09-27T20:19:25;4.18;;;1.38;;
40755;SDS011;26461;45.630;9.418;2022-09-27T20:22:35;7.68;;;2.35;;
40755;SDS011;26461;45.630;9.418;2022-09-27T20:25:46;5.63;;;1.77;;
40755;SDS011;26461;45.630;9.418;2022-09-27T20:28:57;4.15;;;1.45;;
40755;SDS011;26461;45.630;9.418;2022-09-27T20:32:08;3.58;;;0.80;;
40755;SDS011;26461;45.630;9.418;2022-09-27T20:35:13;5.80;;;0.60;;
40755;SDS011;26461;45.630;9.418;2022-09-27T20:38:24;4.13;;;0.77;;
40755;SDS011;26461;45.630;9.418;2022-09-27T20:41:35;2.30;;;0.77;;
40755;SDS011;26461;45.630;9.418;2022-09-27T20:44:48;3.30;;;0.60;;
40755;SDS011;26461;45.630;9.418;2022-09-27T20:47:58;2.30;;;0.50;;
40755;SDS011;26461;45.630;9.418;2022-09-27T20:51:09;2.10;;;0.47;;
40755;SDS011;26461;45.630;9.418;2022-09-27T20:54:22;3.83;;;0.70;;
40755;SDS011;26461;45.630;9.418;2022-09-27T20:57:32;4.35;;;0.40;;
40755;SDS011;26461;45.630;9.418;2022-09-27T21:00:43;2.60;;;1.75;;
40755;SDS011;26461;45.630;9.418;2022-09-27T21:03:53;2.42;;;0.45;;
40755;SDS011;26461;45.630;9.418;2022-09-27T21:07:04;4.50;;;0.63;;
40755;SDS011;26461;45.630;9.418;2022-09-27T21:10:09;3.08;;;0.60;;
40755;SDS011;26461;45.630;9.418;2022-09-27T21:13:15;2.53;;;0.45;;
40755;SDS011;26461;45.630;9.418;2022-09-27T21:16:25;2.03;;;0.50;;
40755;SDS011;26461;45.630;9.418;2022-09-27T21:19:33;4.20;;;0.40;;
40755;SDS011;26461;45.630;9.418;2022-09-27T21:22:44;2.22;;;0.40;;
40755;SDS011;26461;45.630;9.418;2022-09-27T21:26:05;2.13;;;1.00;;
40755;SDS011;26461;45.630;9.418;2022-09-27T21:29:16;1.80;;;0.30;;
40755;SDS011;26461;45.630;9.418;2022-09-27T21:32:26;2.65;;;0.50;;
40755;SDS011;26461;45.630;9.418;2022-09-27T21:35:36;2.63;;;0.73;;
40755;SDS011;26461;45.630;9.418;2022-09-27T21:38:49;3.55;;;0.60;;
40755;SDS011;26461;45.630;9.418;2022-09-27T21:41:59;2.15;;;0.40;;
40755;SDS011;26461;45.630;9.418;2022-09-27T21:45:10;2.10;;;0.60;;
40755;SDS011;26461;45.630;9.418;2022-09-27T21:48:20;2.40;;;0.50;;
40755;SDS011;26461;45.630;9.418;2022-09-27T21:51:29;2.20;;;0.40;;
40755;SDS011;26461;45.630;9.418;2022-09-27T21:54:41;1.80;;;0.40;;